Terminal Aerodrome Forecast
Issued by NWS Paducah, KY

Home | Current Version | Previous Version | Text Only | Print | Product List | Glossary Off
Versions: 1 2 3 4 5 6 7 8 9 10 11 12 13 14

000
FTUS43 KPAH 150500
TAFPAH
TAF
KPAH 150520Z 1506/1606 00000KT P6SM SCT060
     FM151430 19004KT P6SM BKN070 BKN200
     FM160500 23005KT P6SM BKN030=

USA.gov is the U.S. government's official web portal to all federal, state and local government web resources and services.